MOUNT RAINIER
GEOLOGY & WEATHER
Hello guest! [ Log In ]
csv data for Longmire at Longmire, WA

Longmire at Longmire, WA

Date Range to view:
 
[ Graphical View | Weather History ]

GMT Datetime,Local Datetime,Air Temperature (°C),Dew Point Temperature (°C),Relative Humidity (%),Rainfall (in),Snow Depth (m),Battery (V)
2023-09-17 07:00:00,2023-09-17 00:00:00,12.9444,11.1702,76.4,381.49,0.023,13.4
2023-09-17 08:00:00,2023-09-17 01:00:00,12.5500,10.9684,78.6,381.49,0.020,13.4
2023-09-17 09:00:00,2023-09-17 02:00:00,11.9667,10.6888,82.3,381.49,0.018,13.4
2023-09-17 10:00:00,2023-09-17 03:00:00,11.2111,10.1428,84.9,381.49,0.015,13.4
2023-09-17 11:00:00,2023-09-17 04:00:00,10.6333,9.6757,86.3,381.49,0.015,13.4
2023-09-17 12:00:00,2023-09-17 05:00:00,10.2556,9.4047,87.7,381.49,0.013,13.4
2023-09-17 13:00:00,2023-09-17 06:00:00,10.0111,9.2568,89.0,381.49,0.015,13.4
2023-09-17 14:00:00,2023-09-17 07:00:00,10.0222,9.2388,88.6,381.49,0.015,13.4
2023-09-17 15:00:00,2023-09-17 08:00:00,10.6278,9.7001,86.7,381.49,0.018,13.4
2023-09-17 16:00:00,2023-09-17 09:00:00,11.5556,10.3133,82.7,381.49,0.023,13.4
2023-09-17 17:00:00,2023-09-17 10:00:00,13.0889,11.3092,76.4,381.49,0.025,13.4
2023-09-17 18:00:00,2023-09-17 11:00:00,14.9833,12.3082,67.0,381.49,0.033,13.3
2023-09-17 19:00:00,2023-09-17 12:00:00,18.1222,13.4593,50.3,381.49,0.041,13.3
2023-09-17 20:00:00,2023-09-17 13:00:00,19.0278,13.0629,41.6,381.49,0.038,13.2
2023-09-17 21:00:00,2023-09-17 14:00:00,18.3944,11.6781,37.0,381.49,0.038,13.3
2023-09-17 22:00:00,2023-09-17 15:00:00,18.2000,11.5695,37.4,381.49,0.041,13.3
2023-09-17 23:00:00,2023-09-17 16:00:00,18.5611,11.8648,37.1,381.49,0.038,13.3
2023-09-18 00:00:00,2023-09-17 17:00:00,17.7056,12.5705,46.8,381.49,0.036,13.3
2023-09-18 01:00:00,2023-09-17 18:00:00,16.6444,12.7196,55.8,381.49,0.030,13.3
2023-09-18 02:00:00,2023-09-17 19:00:00,15.5278,12.2816,61.6,381.49,0.028,13.3
2023-09-18 03:00:00,2023-09-17 20:00:00,14.3778,11.7494,67.4,381.49,0.025,13.3
2023-09-18 04:00:00,2023-09-17 21:00:00,13.2889,11.0734,71.5,381.49,0.023,13.3
2023-09-18 05:00:00,2023-09-17 22:00:00,12.5500,10.5491,73.8,381.49,0.020,13.4
2023-09-18 06:00:00,2023-09-17 23:00:00,11.7944,10.0216,76.3,381.49,0.018,13.4
2023-09-18 07:00:00,2023-09-18 00:00:00,11.0278,9.4756,78.8,381.49,0.015,13.4
2023-09-18 08:00:00,2023-09-18 01:00:00,10.5389,9.1566,80.8,381.49,0.015,13.4
2023-09-18 09:00:00,2023-09-18 02:00:00,10.6278,9.2764,81.2,381.49,0.018,13.4
2023-09-18 10:00:00,2023-09-18 03:00:00,10.8889,9.5347,81.2,381.49,0.018,13.4
2023-09-18 11:00:00,2023-09-18 04:00:00,11.4056,9.9435,79.9,381.49,0.018,13.4
2023-09-18 12:00:00,2023-09-18 05:00:00,11.3167,9.9978,81.7,381.49,0.018,13.4
2023-09-18 13:00:00,2023-09-18 06:00:00,11.5111,10.5090,85.8,381.49,0.018,13.4
2023-09-18 14:00:00,2023-09-18 07:00:00,11.1333,10.7564,94.4,381.50,0.013,13.4
2023-09-18 15:00:00,2023-09-18 08:00:00,11.0778,10.7424,95.0,381.50,0.013,13.4
2023-09-18 16:00:00,2023-09-18 09:00:00,10.4000,9.8441,91.8,381.50,0.010,13.4
2023-09-18 17:00:00,2023-09-18 10:00:00,11.0722,9.9974,84.8,381.50,0.015,13.4
2023-09-18 18:00:00,2023-09-18 11:00:00,12.9944,10.1999,65.4,381.50,0.018,13.4
2023-09-18 19:00:00,2023-09-18 12:00:00,14.5333,10.3571,53.2,381.50,0.025,13.3
2023-09-18 20:00:00,2023-09-18 13:00:00,15.1500,10.6176,50.5,381.50,0.023,13.3
2023-09-18 21:00:00,2023-09-18 14:00:00,14.9833,11.1340,56.1,381.50,0.030,13.3
2023-09-18 22:00:00,2023-09-18 15:00:00,14.9056,10.6866,53.0,381.50,0.030,13.3
2023-09-18 23:00:00,2023-09-18 16:00:00,14.7556,10.0938,49.4,381.50,0.028,13.3
2023-09-19 00:00:00,2023-09-18 17:00:00,14.0111,9.4449,50.0,381.50,0.025,13.3
2023-09-19 01:00:00,2023-09-18 18:00:00,12.6667,8.6139,53.7,381.50,0.023,13.4
2023-09-19 02:00:00,2023-09-18 19:00:00,11.0500,8.0906,63.3,381.50,0.013,13.4
2023-09-19 03:00:00,2023-09-18 20:00:00,9.1833,6.9989,71.1,381.50,0.010,13.4
2023-09-19 04:00:00,2023-09-18 21:00:00,8.4167,6.5258,74.3,381.50,0.008,13.4
2023-09-19 05:00:00,2023-09-18 22:00:00,7.4222,5.8760,78.3,381.50,0.003,13.5
2023-09-19 06:00:00,2023-09-18 23:00:00,6.5778,5.2614,81.1,381.50,0.003,13.5
2023-09-19 07:00:00,2023-09-19 00:00:00,6.0389,4.8498,82.7,381.50,0.000,13.5
2023-09-19 08:00:00,2023-09-19 01:00:00,5.6556,4.5522,83.8,381.50,0.000,13.5
2023-09-19 09:00:00,2023-09-19 02:00:00,5.3778,4.3358,84.6,381.50,-0.003,13.5
2023-09-19 10:00:00,2023-09-19 03:00:00,5.3500,4.3375,85.0,381.50,0.000,13.5
2023-09-19 11:00:00,2023-09-19 04:00:00,5.7222,4.6405,84.1,381.50,0.003,13.5
2023-09-19 12:00:00,2023-09-19 05:00:00,6.2500,5.0815,83.0,381.50,0.003,13.5
2023-09-19 13:00:00,2023-09-19 06:00:00,6.1889,5.1031,84.1,381.50,0.003,13.5
2023-09-19 14:00:00,2023-09-19 07:00:00,6.2500,5.1711,84.2,381.50,0.003,13.5
2023-09-19 15:00:00,2023-09-19 08:00:00,7.9167,6.3901,78.6,381.50,0.010,13.5
2023-09-19 16:00:00,2023-09-19 09:00:00,8.9111,7.0137,74.3,381.50,0.013,13.5
2023-09-19 17:00:00,2023-09-19 10:00:00,10.3556,7.9886,69.3,381.50,0.023,13.4
2023-09-19 18:00:00,2023-09-19 11:00:00,12.4667,9.2995,61.6,381.50,0.020,13.4
2023-09-19 19:00:00,2023-09-19 12:00:00,12.9944,9.1945,56.0,381.50,0.028,13.4
2023-09-19 20:00:00,2023-09-19 13:00:00,14.0556,9.1508,47.4,381.50,0.028,13.3
2023-09-19 21:00:00,2023-09-19 14:00:00,14.1833,9.3738,48.2,381.50,0.025,13.3
2023-09-19 22:00:00,2023-09-19 15:00:00,14.6111,9.7709,48.1,381.50,0.030,13.3
2023-09-19 23:00:00,2023-09-19 16:00:00,13.9889,9.4053,49.8,381.50,0.025,13.3
2023-09-20 00:00:00,2023-09-19 17:00:00,13.2167,9.3801,55.7,381.50,0.023,13.4
2023-09-20 01:00:00,2023-09-19 18:00:00,12.4222,9.1453,60.6,381.50,0.018,13.4
2023-09-20 02:00:00,2023-09-19 19:00:00,11.3889,8.7547,66.7,381.50,0.013,13.4
2023-09-20 03:00:00,2023-09-19 20:00:00,10.8778,8.6305,70.7,381.50,0.013,13.4
2023-09-20 04:00:00,2023-09-19 21:00:00,10.5389,8.8655,77.2,381.50,0.010,13.4
2023-09-20 05:00:00,2023-09-19 22:00:00,9.6444,8.8851,88.9,381.54,0.005,13.4
2023-09-20 06:00:00,2023-09-19 23:00:00,9.2444,8.8526,94.1,381.54,0.008,13.4
2023-09-20 07:00:00,2023-09-20 00:00:00,8.8722,8.4337,93.4,381.56,0.013,13.5
2023-09-20 08:00:00,2023-09-20 01:00:00,8.1500,7.7344,93.7,381.57,0.018,13.5
2023-09-20 09:00:00,2023-09-20 02:00:00,7.7556,7.3684,94.1,381.60,0.003,13.5
2023-09-20 10:00:00,2023-09-20 03:00:00,7.4278,7.1286,95.4,381.61,0.003,13.5
2023-09-20 11:00:00,2023-09-20 04:00:00,7.1944,6.8692,95.0,381.62,-0.005,13.5
2023-09-20 12:00:00,2023-09-20 05:00:00,7.0333,6.7152,95.1,381.62,-0.005,13.5
2023-09-20 13:00:00,2023-09-20 06:00:00,6.8000,6.4891,95.2,381.62,-0.003,13.5
2023-09-20 14:00:00,2023-09-20 07:00:00,6.6500,6.3659,95.6,381.62,0.000,13.5
2023-09-20 15:00:00,2023-09-20 08:00:00,6.7167,6.4653,96.1,381.62,0.000,13.5
2023-09-20 16:00:00,2023-09-20 09:00:00,7.1944,6.8425,94.6,381.63,0.003,13.5
2023-09-20 17:00:00,2023-09-20 10:00:00,7.9889,7.5124,92.8,381.64,0.005,13.5
2023-09-20 18:00:00,2023-09-20 11:00:00,8.8444,8.3301,92.3,381.65,0.010,13.5
2023-09-20 19:00:00,2023-09-20 12:00:00,9.8333,9.1593,90.1,381.65,0.010,13.4
2023-09-20 20:00:00,2023-09-20 13:00:00,10.5889,9.4952,84.5,381.65,0.013,13.4
2023-09-20 21:00:00,2023-09-20 14:00:00,9.9278,9.0126,86.8,381.66,0.013,13.4
2023-09-20 22:00:00,2023-09-20 15:00:00,9.1611,8.6106,91.8,381.67,0.010,13.4
2023-09-20 23:00:00,2023-09-20 16:00:00,9.2167,8.6938,92.2,381.68,0.013,13.4
2023-09-21 00:00:00,2023-09-20 17:00:00,9.3611,8.7746,91.3,381.68,0.010,13.4
2023-09-21 01:00:00,2023-09-20 18:00:00,9.0667,8.4885,91.4,381.68,0.010,13.4
2023-09-21 02:00:00,2023-09-20 19:00:00,8.8500,8.2799,91.5,381.68,0.008,13.5
2023-09-21 03:00:00,2023-09-20 20:00:00,8.7556,8.2207,92.0,381.68,0.008,13.5
2023-09-21 04:00:00,2023-09-20 21:00:00,8.6889,8.2441,93.3,381.68,0.008,13.5
2023-09-21 05:00:00,2023-09-20 22:00:00,8.6278,8.1351,92.6,381.68,0.008,13.5
2023-09-21 06:00:00,2023-09-20 23:00:00,8.4222,7.9096,92.3,381.68,0.008,13.5
2023-09-21 07:00:00,2023-09-21 00:00:00,7.8111,7.3147,92.5,381.68,0.005,13.5
2023-09-21 08:00:00,2023-09-21 01:00:00,6.8167,6.2557,91.5,381.68,0.000,13.5
2023-09-21 09:00:00,2023-09-21 02:00:00,5.5500,5.0827,92.8,381.68,-0.003,13.5
2023-09-21 10:00:00,2023-09-21 03:00:00,4.6278,4.2502,94.1,381.68,-0.005,13.5
2023-09-21 11:00:00,2023-09-21 04:00:00,4.0722,3.7225,94.5,381.68,-0.008,13.6
2023-09-21 12:00:00,2023-09-21 05:00:00,3.7056,3.3893,95.0,381.68,-0.008,13.6
2023-09-21 13:00:00,2023-09-21 06:00:00,3.9389,3.6351,95.2,381.68,-0.003,13.6
2023-09-21 14:00:00,2023-09-21 07:00:00,5.0889,4.7231,94.3,381.68,0.000,13.6
2023-09-21 15:00:00,2023-09-21 08:00:00,5.3833,4.9368,93.1,381.68,0.000,13.5
2023-09-21 16:00:00,2023-09-21 09:00:00,6.7000,6.0005,89.5,381.68,0.008,13.5
2023-09-21 17:00:00,2023-09-21 10:00:00,9.4944,8.1393,81.0,381.68,0.015,13.5
2023-09-21 18:00:00,2023-09-21 11:00:00,12.2611,10.0296,71.1,381.68,0.023,13.4
2023-09-21 19:00:00,2023-09-21 12:00:00,15.1778,11.5923,58.4,381.68,0.025,13.3
2023-09-21 20:00:00,2023-09-21 13:00:00,15.8222,12.2461,58.6,381.68,0.041,13.3
2023-09-21 21:00:00,2023-09-21 14:00:00,17.6722,13.5457,54.4,381.68,0.030,13.3
2023-09-21 22:00:00,2023-09-21 15:00:00,16.4056,12.5599,56.4,381.68,0.025,13.3
2023-09-21 23:00:00,2023-09-21 16:00:00,15.9000,12.4269,59.6,381.68,0.025,13.3
2023-09-22 00:00:00,2023-09-21 17:00:00,15.4056,12.6220,66.0,381.68,0.020,13.3
2023-09-22 01:00:00,2023-09-21 18:00:00,12.7556,11.2344,79.4,381.68,0.020,13.3
2023-09-22 02:00:00,2023-09-21 19:00:00,11.2500,10.0577,83.3,381.68,0.015,13.4
2023-09-22 03:00:00,2023-09-21 20:00:00,10.0667,9.1282,86.5,381.68,0.013,13.4
2023-09-22 04:00:00,2023-09-21 21:00:00,9.2389,8.4240,88.1,381.68,0.010,13.4
2023-09-22 05:00:00,2023-09-21 22:00:00,8.7778,7.9803,88.3,381.68,0.008,13.5
2023-09-22 06:00:00,2023-09-21 23:00:00,8.3222,7.5708,88.9,381.68,0.008,13.5
2023-09-22 07:00:00,2023-09-22 00:00:00,8.3333,7.5531,88.5,381.68,0.010,13.5
2023-09-22 08:00:00,2023-09-22 01:00:00,8.4944,7.6408,87.5,381.68,0.008,13.5
2023-09-22 09:00:00,2023-09-22 02:00:00,8.2611,7.4163,87.6,381.68,0.008,13.5
2023-09-22 10:00:00,2023-09-22 03:00:00,7.6667,6.9120,88.8,381.68,0.005,13.5
2023-09-22 11:00:00,2023-09-22 04:00:00,7.0833,6.3817,89.5,381.68,0.005,13.5
2023-09-22 12:00:00,2023-09-22 05:00:00,6.7778,6.0708,89.4,381.68,0.003,13.5
2023-09-22 13:00:00,2023-09-22 06:00:00,6.6222,5.9021,89.2,381.68,0.003,13.5
2023-09-22 14:00:00,2023-09-22 07:00:00,6.5111,5.8056,89.4,381.68,0.003,13.5
2023-09-22 15:00:00,2023-09-22 08:00:00,6.9833,6.2540,89.1,381.68,0.008,13.5
2023-09-22 16:00:00,2023-09-22 09:00:00,9.3222,8.2243,84.3,381.68,1.318,13.5
2023-09-22 17:00:00,2023-09-22 10:00:00,13.1278,11.1498,74.1,381.68,0.028,13.4
2023-09-22 18:00:00,2023-09-22 11:00:00,16.9167,11.8698,47.2,381.68,0.038,13.3
2023-09-22 19:00:00,2023-09-22 12:00:00,20.1333,12.7072,33.7,381.68,0.043,13.2
2023-09-22 20:00:00,2023-09-22 13:00:00,21.5778,12.8319,28.0,381.68,0.046,13.2
2023-09-22 21:00:00,2023-09-22 14:00:00,22.0167,12.9853,26.9,381.68,0.043,13.2
2023-09-22 22:00:00,2023-09-22 15:00:00,20.4611,12.4496,30.9,381.68,0.046,13.2
2023-09-22 23:00:00,2023-09-22 16:00:00,19.9444,12.5051,33.6,381.68,0.041,13.2
2023-09-23 00:00:00,2023-09-22 17:00:00,18.8667,12.8159,41.0,381.68,0.020,13.2
2023-09-23 01:00:00,2023-09-22 18:00:00,15.4833,11.7181,56.9,381.68,0.028,13.3
2023-09-23 02:00:00,2023-09-22 19:00:00,13.6500,10.2442,59.7,381.68,0.025,13.3
2023-09-23 03:00:00,2023-09-22 20:00:00,12.4444,9.6122,64.9,381.68,0.023,13.4
2023-09-23 04:00:00,2023-09-22 21:00:00,11.4944,9.1360,69.6,381.68,0.018,13.4
2023-09-23 05:00:00,2023-09-22 22:00:00,10.6667,8.6942,73.7,381.68,0.020,13.4
2023-09-23 06:00:00,2023-09-22 23:00:00,10.7056,8.6597,72.9,381.68,0.018,13.4
2023-09-23 07:00:00,2023-09-23 00:00:00,10.5889,8.5379,72.8,381.68,0.018,13.4
2023-09-23 08:00:00,2023-09-23 01:00:00,10.5944,8.3321,70.5,381.68,0.020,13.4
2023-09-23 09:00:00,2023-09-23 02:00:00,10.4556,8.1839,70.3,381.68,0.020,13.4
2023-09-23 10:00:00,2023-09-23 03:00:00,10.4000,8.1284,70.3,381.68,0.020,13.4
2023-09-23 11:00:00,2023-09-23 04:00:00,10.5944,8.2277,69.3,381.68,0.020,13.4
2023-09-23 12:00:00,2023-09-23 05:00:00,10.4722,8.3059,71.5,381.68,0.018,13.4
2023-09-23 13:00:00,2023-09-23 06:00:00,10.0556,8.0412,73.2,381.68,0.018,13.4
2023-09-23 14:00:00,2023-09-23 07:00:00,10.0944,8.0206,72.5,381.68,0.020,13.4
2023-09-23 15:00:00,2023-09-23 08:00:00,10.9556,8.8995,72.8,381.68,0.023,13.4
2023-09-23 16:00:00,2023-09-23 09:00:00,12.2889,9.8990,69.4,381.68,0.023,13.4
2023-09-23 17:00:00,2023-09-23 10:00:00,13.3389,10.0951,61.1,381.68,0.038,13.4
2023-09-23 18:00:00,2023-09-23 11:00:00,13.7722,10.1875,58.1,381.68,0.025,13.4
2023-09-23 19:00:00,2023-09-23 12:00:00,13.6778,10.0530,57.7,381.68,0.025,13.4
2023-09-23 20:00:00,2023-09-23 13:00:00,13.4444,9.7935,57.4,381.68,0.025,13.4
2023-09-23 21:00:00,2023-09-23 14:00:00,13.6500,9.7057,54.9,381.68,0.028,13.4
2023-09-23 22:00:00,2023-09-23 15:00:00,13.0111,9.7330,60.7,381.68,0.020,13.4
2023-09-23 23:00:00,2023-09-23 16:00:00,11.6944,10.0201,77.4,381.70,0.015,13.4
2023-09-24 00:00:00,2023-09-23 17:00:00,9.9000,9.4579,93.4,381.73,0.015,13.4
2023-09-24 01:00:00,2023-09-23 18:00:00,9.4222,8.9818,93.4,381.74,0.013,13.4
2023-09-24 02:00:00,2023-09-23 19:00:00,8.8000,8.4435,94.6,381.76,0.013,13.5
2023-09-24 03:00:00,2023-09-23 20:00:00,8.4278,8.0859,94.8,381.78,0.010,13.5
2023-09-24 04:00:00,2023-09-23 21:00:00,8.1333,7.8124,95.1,381.79,0.010,13.5
2023-09-24 05:00:00,2023-09-23 22:00:00,7.9500,7.6027,94.7,381.80,0.008,13.5
2023-09-24 06:00:00,2023-09-23 23:00:00,7.7611,7.4678,95.5,381.80,0.008,13.5